createdAt,value
2022-12-20T00:03:39.449Z,16.17
2022-12-20T00:08:42.570Z,16.00
2022-12-20T00:13:47.599Z,14.60
2022-12-20T00:18:58.134Z,14.90
2022-12-20T00:24:01.867Z,14.33
2022-12-20T00:29:06.483Z,14.03
2022-12-20T00:34:09.599Z,16.23
2022-12-20T00:39:12.557Z,15.13
2022-12-20T00:44:15.440Z,14.87
2022-12-20T00:49:18.409Z,14.10
2022-12-20T00:54:21.359Z,14.07
2022-12-20T00:59:24.150Z,14.60
2022-12-20T01:04:27.021Z,16.47
2022-12-20T01:09:29.752Z,13.87
2022-12-20T01:14:33.757Z,14.13
2022-12-20T01:19:38.259Z,15.27
2022-12-20T01:24:41.106Z,17.27
2022-12-20T01:29:44.580Z,14.67
2022-12-20T01:34:47.510Z,13.87
2022-12-20T01:39:50.445Z,15.70
2022-12-20T01:44:58.140Z,15.03
2022-12-20T01:50:04.810Z,13.40
2022-12-20T01:55:17.201Z,13.53
2022-12-20T02:00:21.182Z,15.60
2022-12-20T02:05:24.245Z,13.83
2022-12-20T02:10:50.252Z,13.80
2022-12-20T02:15:58.282Z,15.37
2022-12-20T02:21:34.237Z,16.00
2022-12-20T02:27:21.620Z,14.37
2022-12-20T02:32:36.167Z,15.60
2022-12-20T02:37:53.421Z,13.07
2022-12-20T02:43:03.363Z,13.43
2022-12-20T02:48:11.029Z,14.27
2022-12-20T02:53:16.329Z,15.60
2022-12-20T02:59:02.363Z,15.87
2022-12-20T03:04:05.841Z,15.33
2022-12-20T03:09:08.728Z,14.87
2022-12-20T03:14:11.771Z,14.37
2022-12-20T03:19:14.664Z,11.60
2022-12-20T03:24:17.861Z,13.70
2022-12-20T03:29:20.563Z,14.23
2022-12-20T03:34:24.390Z,14.60
2022-12-20T03:39:27.229Z,12.80
2022-12-20T03:44:30.126Z,12.83
2022-12-20T03:49:33.456Z,14.60
2022-12-20T03:54:36.467Z,12.80
2022-12-20T03:59:39.407Z,14.07
2022-12-20T04:04:42.638Z,13.27
2022-12-20T04:09:45.627Z,12.33
2022-12-20T04:14:48.615Z,15.03
2022-12-20T04:19:51.557Z,13.47
2022-12-20T04:24:54.482Z,14.07
2022-12-20T04:29:57.367Z,12.77
2022-12-20T04:35:00.332Z,13.37
2022-12-20T04:40:03.917Z,14.90
2022-12-20T04:45:08.333Z,12.37
2022-12-20T04:50:11.344Z,16.77
2022-12-20T04:55:14.313Z,13.37
2022-12-20T05:00:17.757Z,12.17
2022-12-20T05:05:20.989Z,11.13
2022-12-20T05:10:24.093Z,11.57
2022-12-20T05:15:27.070Z,13.33
2022-12-20T05:20:32.189Z,11.83
2022-12-20T05:26:10.007Z,11.53
2022-12-20T05:31:13.114Z,12.63
2022-12-20T05:36:16.605Z,13.03
2022-12-20T05:41:20.051Z,13.00
2022-12-20T05:46:23.072Z,14.90
2022-12-20T05:51:26.087Z,15.33
2022-12-20T05:56:28.993Z,14.10
2022-12-20T06:01:32.228Z,13.30
2022-12-20T06:06:35.351Z,12.10
2022-12-20T06:11:38.484Z,11.17
2022-12-20T06:16:41.596Z,12.20
2022-12-20T06:21:45.327Z,10.23
2022-12-20T06:26:48.271Z,11.10
2022-12-20T06:31:51.267Z,12.27
2022-12-20T06:36:54.316Z,12.03
2022-12-20T06:41:57.208Z,13.40
2022-12-20T06:47:02.032Z,12.13
2022-12-20T06:52:06.227Z,12.67
2022-12-20T06:57:09.020Z,13.17
2022-12-20T07:02:12.885Z,12.73
2022-12-20T07:07:17.215Z,18.17
2022-12-20T07:12:20.612Z,13.10
2022-12-20T07:17:23.428Z,12.07
2022-12-20T07:22:26.635Z,12.03
2022-12-20T07:27:29.548Z,12.63
2022-12-20T07:32:32.816Z,11.87
2022-12-20T07:37:36.670Z,12.17
2022-12-20T07:42:46.160Z,11.80
2022-12-20T07:47:51.331Z,13.17
2022-12-20T07:52:55.144Z,12.63
2022-12-20T07:58:04.982Z,14.70
2022-12-20T08:03:23.433Z,11.50
2022-12-20T08:08:26.787Z,12.87
2022-12-20T08:13:29.671Z,12.70
2022-12-20T08:18:32.603Z,12.13
2022-12-20T08:23:35.552Z,17.37
2022-12-20T08:28:38.513Z,15.83
2022-12-20T08:33:41.591Z,14.23
2022-12-20T08:38:44.488Z,12.07
2022-12-20T08:43:47.431Z,10.40
2022-12-20T08:48:50.334Z,10.63
2022-12-20T08:53:53.397Z,11.57
2022-12-20T08:58:56.194Z,12.47
2022-12-20T09:03:59.571Z,11.10
2022-12-20T09:09:03.568Z,10.13
2022-12-20T09:14:08.238Z,10.63
2022-12-20T09:19:13.847Z,10.77
2022-12-20T09:24:17.424Z,11.63
2022-12-20T09:29:27.081Z,10.20
2022-12-20T09:34:33.022Z,11.07
2022-12-20T09:39:37.725Z,10.00
2022-12-20T09:44:42.903Z,11.10
2022-12-20T09:49:51.009Z,11.50
2022-12-20T09:55:34.647Z,10.73
2022-12-20T10:00:51.885Z,11.27
2022-12-20T10:06:04.789Z,9.80
2022-12-20T10:11:51.260Z,11.10
2022-12-20T10:17:15.754Z,10.90
2022-12-20T10:22:26.182Z,11.43
2022-12-20T10:27:29.539Z,11.03
2022-12-20T10:32:33.538Z,10.67
2022-12-20T10:37:36.726Z,10.27
2022-12-20T10:42:43.277Z,10.43
2022-12-20T10:47:48.479Z,9.93
2022-12-20T10:53:25.630Z,9.80
2022-12-20T10:58:30.310Z,9.43
2022-12-20T11:03:33.853Z,9.00
2022-12-20T11:08:44.392Z,9.90
2022-12-20T11:13:50.134Z,9.43
2022-12-20T11:19:56.927Z,9.53
2022-12-20T11:25:07.593Z,10.13
2022-12-20T11:31:07.102Z,10.30
2022-12-20T11:36:27.835Z,10.90
2022-12-20T11:42:09.776Z,9.40
2022-12-20T11:48:34.809Z,10.53
2022-12-20T11:53:39.214Z,10.40
2022-12-20T11:59:02.467Z,10.60
2022-12-20T12:04:21.046Z,12.43
2022-12-20T12:10:03.293Z,10.90
2022-12-20T12:16:23.504Z,10.50
2022-12-20T12:21:56.367Z,10.33
2022-12-20T12:32:33.670Z,10.00
2022-12-20T12:38:03.863Z,12.53
2022-12-20T12:43:40.901Z,11.60
2022-12-20T12:48:45.909Z,11.60
2022-12-20T12:53:53.584Z,9.40
2022-12-20T12:59:22.134Z,9.13
2022-12-20T13:04:29.744Z,9.97
2022-12-20T13:09:32.597Z,13.27
2022-12-20T13:14:41.722Z,10.20
2022-12-20T13:19:56.025Z,13.23
2022-12-20T13:25:04.148Z,18.20
2022-12-20T13:30:17.248Z,12.53
2022-12-20T13:35:26.469Z,13.20
2022-12-20T13:40:39.669Z,20.13
2022-12-20T13:45:51.960Z,10.37
2022-12-20T13:50:57.616Z,10.60
2022-12-20T13:56:48.046Z,10.87
2022-12-20T14:01:55.198Z,10.03
2022-12-20T14:07:01.901Z,16.47
2022-12-20T14:12:25.260Z,15.03
2022-12-20T14:17:44.364Z,14.80
2022-12-20T14:23:15.396Z,12.37
2022-12-20T14:28:39.813Z,11.37
2022-12-20T14:33:42.829Z,13.63
2022-12-20T14:38:49.837Z,12.73
2022-12-20T14:43:58.141Z,12.77
2022-12-20T14:49:25.196Z,14.87
2022-12-20T15:00:18.393Z,17.90
2022-12-20T15:05:47.188Z,18.00
2022-12-20T15:11:10.818Z,17.43
2022-12-20T15:16:25.277Z,16.37
2022-12-20T15:21:43.045Z,15.23
2022-12-20T15:26:48.047Z,18.60
2022-12-20T15:32:07.153Z,15.67
2022-12-20T15:37:18.360Z,18.67
2022-12-20T15:42:23.051Z,17.77
2022-12-20T15:47:26.500Z,15.67
2022-12-20T15:52:29.697Z,16.80
2022-12-20T15:57:32.676Z,15.47
2022-12-20T16:02:35.787Z,20.07
2022-12-20T16:07:39.158Z,18.83
2022-12-20T16:12:42.382Z,14.27
2022-12-20T16:17:45.210Z,14.17
2022-12-20T16:22:48.065Z,16.93
2022-12-20T16:27:51.917Z,17.57
2022-12-20T16:32:54.921Z,16.53
2022-12-20T16:38:00.246Z,17.37
2022-12-20T16:43:03.452Z,18.10
2022-12-20T16:48:06.617Z,22.90
2022-12-20T16:53:15.512Z,20.77
2022-12-20T16:58:18.255Z,17.70
2022-12-20T17:03:21.241Z,19.03
2022-12-20T17:13:46.819Z,20.10
2022-12-20T17:18:53.095Z,22.87
2022-12-20T17:23:55.926Z,24.97
2022-12-20T17:29:00.667Z,21.93
2022-12-20T17:34:15.601Z,17.60
2022-12-20T17:39:18.910Z,19.40
2022-12-20T17:44:27.760Z,22.57
2022-12-20T17:49:31.393Z,20.07
2022-12-20T17:54:39.905Z,22.60
2022-12-20T17:59:43.460Z,21.87
2022-12-20T18:04:47.369Z,21.10
2022-12-20T18:09:50.974Z,20.60
2022-12-20T18:14:54.029Z,23.53
2022-12-20T18:19:57.065Z,19.67
2022-12-20T18:25:00.609Z,21.17
2022-12-20T18:30:04.309Z,21.30
2022-12-20T18:35:08.354Z,31.00
2022-12-20T18:40:11.800Z,25.10
2022-12-20T18:45:14.754Z,25.40
2022-12-20T18:50:17.658Z,24.43
2022-12-20T18:55:20.486Z,24.27
2022-12-20T19:00:23.467Z,21.33
2022-12-20T19:05:28.617Z,21.53
2022-12-20T19:10:33.396Z,19.43
2022-12-20T19:15:36.381Z,21.90
2022-12-20T19:20:40.202Z,23.57
2022-12-20T19:25:43.420Z,25.40
2022-12-20T19:30:46.450Z,21.30
2022-12-20T19:35:55.863Z,18.77
2022-12-20T19:40:59.432Z,21.07
2022-12-20T19:46:02.663Z,20.20
2022-12-20T19:51:15.580Z,19.63
2022-12-20T19:56:22.808Z,24.53
2022-12-20T20:01:27.817Z,25.43
2022-12-20T20:06:30.944Z,24.23
2022-12-20T20:11:34.168Z,23.80
2022-12-20T20:16:37.965Z,22.53
2022-12-20T20:21:41.131Z,20.27
2022-12-20T20:26:44.167Z,19.90
2022-12-20T20:31:47.211Z,21.47
2022-12-20T20:36:50.122Z,19.03
2022-12-20T20:41:52.968Z,16.53
2022-12-20T20:46:56.017Z,19.63
2022-12-20T20:51:58.941Z,20.70
2022-12-20T20:57:01.613Z,20.83
2022-12-20T21:02:05.001Z,22.23
2022-12-20T21:07:07.982Z,19.53
2022-12-20T21:12:11.389Z,20.37
2022-12-20T21:17:14.473Z,20.40
2022-12-20T21:22:17.383Z,16.87
2022-12-20T21:27:20.312Z,17.33
2022-12-20T21:32:23.377Z,20.83
2022-12-20T21:37:29.266Z,19.40
2022-12-20T21:42:32.477Z,17.50
2022-12-20T21:47:36.048Z,20.03
2022-12-20T21:52:40.788Z,22.03
2022-12-20T21:57:44.060Z,16.83
2022-12-20T22:02:47.268Z,16.67
2022-12-20T22:07:50.201Z,17.57
2022-12-20T22:12:53.077Z,16.37
2022-12-20T22:17:55.756Z,17.80
2022-12-20T22:22:58.621Z,15.93
2022-12-20T22:28:01.538Z,15.13
2022-12-20T22:33:04.591Z,13.83
2022-12-20T22:38:07.434Z,15.87
2022-12-20T22:43:10.352Z,12.93
2022-12-20T22:48:13.171Z,15.73
2022-12-20T22:53:16.031Z,15.20
2022-12-20T22:58:19.082Z,13.67
2022-12-20T23:03:22.241Z,13.83
2022-12-20T23:08:29.795Z,14.00
2022-12-20T23:13:51.701Z,16.60
2022-12-20T23:18:56.359Z,15.60
2022-12-20T23:23:59.452Z,14.57
2022-12-20T23:29:04.336Z,12.60
2022-12-20T23:34:08.028Z,13.83
2022-12-20T23:39:10.922Z,14.00
2022-12-20T23:44:13.878Z,13.97
2022-12-20T23:49:16.913Z,13.87
2022-12-20T23:54:21.480Z,13.53
2022-12-20T23:59:24.667Z,15.97
